Time;durP1;ratioP1;P1;durP2;ratioP2;P2;SDS_P1;SDS_P2;PMS_P1;PMS_P2;Temp;Humidity;BMP_temperature;BMP_pressure;BME280_temperature;BME280_humidity;BME280_pressure;Samples;Min_cycle;Max_cycle;Signal;HPM_P1;HPM_P2
2022/08/15 00:02:57;;;;;;;12.35;8.48;;;24.70;79.20;;;;;;7648199;22;81868;-67
2022/08/15 00:05:58;;;;;;;17.80;8.52;;;24.70;79.30;;;;;;7649998;22;81333;-67
2022/08/15 00:08:59;;;;;;;11.77;7.93;;;24.70;79.90;;;;;;7650471;22;80883;-67
2022/08/15 00:11:59;;;;;;;15.05;9.05;;;24.70;79.20;;;;;;7649970;22;80360;-67
2022/08/15 00:15:00;;;;;;;13.30;7.95;;;24.70;79.20;;;;;;7650577;22;81063;-67
2022/08/15 00:18:00;;;;;;;14.05;9.18;;;24.70;79.20;;;;;;7649228;22;81952;-68
2022/08/15 00:21:01;;;;;;;15.60;8.95;;;24.60;79.40;;;;;;7651215;22;80674;-68
2022/08/15 00:24:01;;;;;;;16.55;9.70;;;24.60;79.50;;;;;;7651819;22;80364;-68
2022/08/15 00:27:02;;;;;;;14.90;9.45;;;24.60;79.60;;;;;;7651363;22;80645;-68
2022/08/15 00:30:03;;;;;;;16.83;9.32;;;24.60;79.70;;;;;;7650817;22;80713;-68
2022/08/15 00:33:04;;;;;;;12.70;8.50;;;24.60;79.70;;;;;;7650905;22;80434;-68
2022/08/15 00:36:05;;;;;;;15.77;8.45;;;24.60;79.80;;;;;;7648637;22;82898;-68
2022/08/15 00:39:05;;;;;;;15.65;9.25;;;24.60;79.80;;;;;;7650110;22;80596;-67
2022/08/15 00:42:06;;;;;;;16.92;9.70;;;24.50;79.60;;;;;;7623729;22;81886;-68
2022/08/15 00:45:07;;;;;;;15.20;9.95;;;24.50;79.60;;;;;;7650482;22;80588;-68
2022/08/15 00:51:44;;;;;;;14.40;9.07;;;24.40;79.60;;;;;;7537799;22;80175;-68
2022/08/15 00:54:45;;;;;;;14.10;8.93;;;24.40;79.60;;;;;;7650563;22;80143;-68
2022/08/15 00:57:45;;;;;;;13.40;8.95;;;24.50;79.60;;;;;;7647543;22;82006;-68
2022/08/15 01:00:46;;;;;;;12.85;8.40;;;24.50;79.60;;;;;;7648884;22;80276;-68
2022/08/15 01:03:47;;;;;;;19.92;8.73;;;24.50;79.60;;;;;;7650631;22;80344;-68
2022/08/15 01:06:51;;;;;;;14.07;9.00;;;24.50;79.60;;;;;;7648377;22;83254;-67
2022/08/15 01:09:52;;;;;;;14.32;8.63;;;24.50;79.50;;;;;;7648508;22;81839;-67
2022/08/15 01:12:53;;;;;;;11.55;8.52;;;24.50;79.60;;;;;;7649732;22;80329;-68
2022/08/15 01:15:53;;;;;;;10.13;7.70;;;24.60;79.60;;;;;;7650519;22;80707;-67
2022/08/15 01:18:54;;;;;;;15.25;8.38;;;24.50;79.50;;;;;;7650574;22;80335;-69
2022/08/15 01:21:54;;;;;;;19.98;8.50;;;24.60;79.40;;;;;;7649877;22;80262;-68
2022/08/15 01:24:56;;;;;;;15.07;8.68;;;24.50;79.30;;;;;;7649837;22;80080;-68
2022/08/15 01:27:56;;;;;;;11.75;8.20;;;24.60;79.30;;;;;;7650097;22;80321;-68
2022/08/15 01:30:58;;;;;;;13.32;8.43;;;24.50;79.30;;;;;;7623020;22;81758;-68
2022/08/15 01:33:58;;;;;;;13.02;8.70;;;24.50;79.40;;;;;;7650169;22;80425;-68
2022/08/15 01:36:59;;;;;;;14.00;9.52;;;24.40;79.40;;;;;;7647725;22;80695;-68
2022/08/15 01:39:59;;;;;;;10.65;6.97;;;24.40;79.40;;;;;;7647623;22;83091;-68
2022/08/15 01:43:02;;;;;;;10.80;7.65;;;24.50;79.60;;;;;;7647619;22;83482;-68
2022/08/15 01:46:03;;;;;;;12.40;8.02;;;24.40;79.50;;;;;;7647817;22;82766;-68
2022/08/15 01:49:03;;;;;;;11.48;7.55;;;24.40;79.50;;;;;;7647666;22;82806;-69
2022/08/15 01:52:04;;;;;;;12.40;7.80;;;24.40;79.50;;;;;;7647648;22;82887;-68
2022/08/15 01:55:07;;;;;;;12.20;8.98;;;24.40;79.60;;;;;;7623357;22;81304;-68
2022/08/15 01:58:08;;;;;;;14.13;7.95;;;24.40;79.70;;;;;;7650104;22;83058;-69
2022/08/15 02:01:09;;;;;;;14.35;7.70;;;24.40;79.60;;;;;;7649944;22;82895;-69
2022/08/15 02:04:09;;;;;;;14.57;8.20;;;24.40;79.60;;;;;;7648573;22;82905;-68
2022/08/15 02:07:10;;;;;;;14.85;8.38;;;24.40;79.60;;;;;;7649727;22;80363;-68
2022/08/15 02:10:11;;;;;;;11.68;7.57;;;24.40;79.60;;;;;;7648624;22;81961;-68
2022/08/15 02:13:14;;;;;;;13.05;7.68;;;24.40;79.40;;;;;;7647810;22;83006;-68
2022/08/15 02:16:14;;;;;;;13.05;8.20;;;24.40;79.50;;;;;;7647922;22;80468;-68
2022/08/15 02:19:15;;;;;;;14.30;7.78;;;24.40;79.50;;;;;;7648055;22;82011;-69
2022/08/15 02:22:15;;;;;;;11.30;7.80;;;24.40;79.50;;;;;;7647456;22;81513;-68
2022/08/15 02:25:16;;;;;;;14.50;8.50;;;24.40;79.30;;;;;;7650319;22;81048;-69
2022/08/15 02:28:17;;;;;;;15.88;8.27;;;24.40;79.30;;;;;;7648110;22;82541;-68
2022/08/15 02:31:18;;;;;;;12.02;8.13;;;24.40;79.40;;;;;;7647947;22;82664;-68
2022/08/15 02:34:19;;;;;;;13.02;7.63;;;24.40;79.10;;;;;;7647674;22;83002;-69
2022/08/15 02:37:20;;;;;;;17.38;8.13;;;24.30;79.60;;;;;;7647237;22;81409;-69
2022/08/15 02:40:21;;;;;;;13.05;7.30;;;24.30;79.50;;;;;;7647941;22;82758;-69
2022/08/15 02:43:22;;;;;;;10.90;7.78;;;24.30;79.70;;;;;;7649196;22;80169;-68
2022/08/15 02:46:23;;;;;;;13.77;8.00;;;24.20;79.60;;;;;;7646888;22;83205;-68
2022/08/15 02:49:29;;;;;;;;;;;24.30;79.50;;;;;;7647863;22;83116;-69
2022/08/15 02:52:30;;;;;;;17.48;8.00;;;24.30;79.20;;;;;;7656688;22;80652;-70
2022/08/15 02:55:30;;;;;;;10.88;7.75;;;24.30;79.00;;;;;;7648717;22;80227;-69
2022/08/15 02:58:31;;;;;;;14.52;8.57;;;24.40;79.00;;;;;;7647231;22;82945;-68
2022/08/15 03:01:37;;;;;;;9.13;6.50;;;24.40;78.60;;;;;;7646814;22;82305;-68
2022/08/15 03:04:38;;;;;;;12.15;7.50;;;24.40;78.80;;;;;;7647208;22;83116;-68
2022/08/15 03:07:44;;;;;;;11.88;7.32;;;24.30;78.70;;;;;;7646886;22;83033;-67
2022/08/15 03:10:45;;;;;;;12.85;7.47;;;24.30;78.50;;;;;;7646418;22;83063;-66
2022/08/15 03:13:51;;;;;;;11.90;7.20;;;24.30;78.70;;;;;;7646442;22;83505;-67
2022/08/15 03:16:52;;;;;;;15.23;8.35;;;24.40;78.60;;;;;;7646971;22;83176;-68
2022/08/15 03:19:55;;;;;;;9.80;6.88;;;24.40;78.50;;;;;;7646534;22;82227;-67
2022/08/15 03:22:57;;;;;;;10.60;7.47;;;24.40;78.50;;;;;;7646546;22;83092;-68
2022/08/15 03:26:01;;;;;;;11.52;7.60;;;24.40;78.40;;;;;;7622256;22;81972;-68
2022/08/15 03:29:02;;;;;;;13.07;7.88;;;24.40;78.40;;;;;;7646869;22;81914;-68
2022/08/15 03:32:02;;;;;;;11.13;7.45;;;24.30;78.30;;;;;;7648869;22;80338;-66
2022/08/15 03:35:03;;;;;;;13.25;8.02;;;24.30;78.20;;;;;;7647266;22;83176;-68
2022/08/15 03:38:03;;;;;;;12.32;7.20;;;24.40;78.30;;;;;;7648721;22;80453;-69
2022/08/15 03:41:06;;;;;;;11.93;7.28;;;24.40;78.20;;;;;;7646362;22;81863;-68
2022/08/15 03:44:08;;;;;;;13.02;8.18;;;24.40;78.20;;;;;;7646315;22;80575;-68
2022/08/15 03:47:09;;;;;;;12.02;7.25;;;24.40;78.10;;;;;;7647357;22;83259;-68
2022/08/15 03:50:12;;;;;;;13.48;7.55;;;24.40;78.10;;;;;;7646938;22;82789;-68
2022/08/15 03:53:13;;;;;;;10.82;7.55;;;24.40;78.80;;;;;;7646789;22;82799;-68
2022/08/15 03:56:15;;;;;;;11.27;7.15;;;24.40;78.20;;;;;;7646147;22;80744;-67
2022/08/15 03:59:16;;;;;;;9.73;6.82;;;24.40;78.20;;;;;;7621517;22;88306;-68
2022/08/15 04:02:17;;;;;;;16.73;8.43;;;24.40;78.40;;;;;;7633744;22;86920;-68
2022/08/15 04:05:18;;;;;;;13.05;7.50;;;24.40;78.70;;;;;;7646628;22;82960;-68
2022/08/15 04:08:19;;;;;;;13.95;8.90;;;24.30;79.00;;;;;;7647800;22;83078;-68
2022/08/15 04:11:20;;;;;;;14.57;9.27;;;24.30;79.50;;;;;;7649644;22;81249;-68
2022/08/15 04:14:21;;;;;;;17.63;10.40;;;24.30;79.90;;;;;;7650567;22;80455;-68
2022/08/15 04:17:23;;;;;;;18.52;9.90;;;24.20;80.10;;;;;;7643655;22;82903;-68
2022/08/15 04:20:28;;;;;;;18.95;10.38;;;24.20;80.20;;;;;;7649101;22;82787;-68
2022/08/15 04:23:28;;;;;;;17.92;10.40;;;24.20;80.30;;;;;;7644200;22;83023;-69
2022/08/15 04:26:29;;;;;;;20.70;10.57;;;24.20;80.60;;;;;;7643859;22;86201;-68
2022/08/15 04:29:31;;;;;;;20.50;10.88;;;24.20;80.90;;;;;;7643561;22;90895;-68
2022/08/15 04:32:32;;;;;;;21.35;11.35;;;24.20;80.90;;;;;;7643550;22;86022;-68
2022/08/15 04:35:33;;;;;;;20.77;11.90;;;24.20;80.80;;;;;;7643767;22;86379;-68
2022/08/15 04:38:33;;;;;;;23.38;12.60;;;24.30;80.60;;;;;;7644900;22;82869;-68
2022/08/15 04:41:35;;;;;;;19.00;11.43;;;24.30;80.60;;;;;;7642960;22;85675;-68
2022/08/15 04:44:35;;;;;;;27.42;13.57;;;24.30;80.60;;;;;;7643624;22;85274;-67
2022/08/15 04:47:36;;;;;;;27.75;14.45;;;24.30;80.80;;;;;;7643699;22;85384;-68
2022/08/15 04:50:39;;;;;;;24.70;13.85;;;24.30;81.10;;;;;;7644827;22;83013;-68
2022/08/15 04:53:46;;;;;;;24.35;14.20;;;24.20;82.10;;;;;;7642976;22;84380;-70
2022/08/15 04:56:47;;;;;;;37.33;16.27;;;24.20;82.10;;;;;;7643279;22;85339;-69
2022/08/15 04:59:48;;;;;;;29.92;16.42;;;24.20;82.70;;;;;;7643978;22;85645;-72
2022/08/15 05:02:53;;;;;;;32.53;16.40;;;24.20;82.70;;;;;;7643070;22;84125;-69
2022/08/15 05:05:54;;;;;;;30.02;15.50;;;24.10;83.10;;;;;;7643782;22;83787;-68
2022/08/15 05:08:55;;;;;;;33.97;17.02;;;24.20;83.10;;;;;;7643151;22;83336;-68
2022/08/15 05:11:57;;;;;;;26.10;15.05;;;24.20;83.00;;;;;;7618364;22;84670;-68
2022/08/15 05:14:57;;;;;;;28.83;14.95;;;24.20;82.90;;;;;;7643535;22;86090;-69
2022/08/15 05:17:58;;;;;;;30.75;14.73;;;24.20;82.80;;;;;;7617543;22;85759;-68
2022/08/15 05:21:01;;;;;;;31.17;16.05;;;24.30;82.70;;;;;;7643493;22;84991;-69
2022/08/15 05:24:04;;;;;;;33.53;18.50;;;24.30;84.70;;;;;;7643565;22;85760;-69
2022/08/15 05:27:05;;;;;;;37.33;17.88;;;24.20;85.50;;;;;;7643301;22;85483;-69
2022/08/15 05:30:07;;;;;;;55.10;22.60;;;24.20;85.60;;;;;;7644890;22;83360;-69
2022/08/15 05:33:08;;;;;;;40.75;21.30;;;24.20;85.90;;;;;;7645501;22;82572;-77
2022/08/15 05:36:08;;;;;;;51.25;20.50;;;24.20;85.80;;;;;;7644035;22;85725;-68
2022/08/15 05:39:10;;;;;;;45.88;21.63;;;24.30;85.80;;;;;;7643814;22;85853;-70
2022/08/15 05:42:11;;;;;;;42.83;23.30;;;24.30;86.30;;;;;;7644392;22;85744;-69
2022/08/15 05:45:12;;;;;;;52.33;24.58;;;24.30;86.40;;;;;;7644203;22;84996;-69
2022/08/15 05:48:16;;;;;;;48.78;25.73;;;24.40;86.80;;;;;;7644128;22;85804;-68
2022/08/15 05:51:16;;;;;;;44.88;23.45;;;24.30;87.30;;;;;;7643865;22;86346;-67
2022/08/15 05:54:19;;;;;;;36.97;19.20;;;24.30;87.30;;;;;;7643994;22;85687;-68
2022/08/15 05:57:19;;;;;;;38.88;19.13;;;24.30;86.30;;;;;;7646339;22;82822;-67
2022/08/15 06:00:20;;;;;;;31.17;17.45;;;24.30;86.10;;;;;;7643448;22;85828;-68
2022/08/15 06:03:21;;;;;;;30.88;16.85;;;24.30;85.80;;;;;;7644455;22;83983;-66
2022/08/15 06:06:22;;;;;;;29.95;16.83;;;24.30;85.60;;;;;;7646448;22;83408;-67
2022/08/15 06:09:22;;;;;;;31.23;17.10;;;24.30;85.40;;;;;;7644386;22;85457;-67
2022/08/15 06:12:25;;;;;;;37.97;17.77;;;24.30;85.30;;;;;;7642620;22;85598;-68
2022/08/15 06:15:25;;;;;;;34.67;18.15;;;24.30;85.40;;;;;;7640976;22;85552;-68
2022/08/15 06:18:31;;;;;;;40.03;20.35;;;24.30;85.60;;;;;;7617705;22;85787;-68
2022/08/15 06:21:37;;;;;;;37.03;20.13;;;24.20;85.30;;;;;;7641732;22;85684;-69
2022/08/15 06:24:38;;;;;;;46.72;22.52;;;24.20;85.40;;;;;;7641531;22;85791;-67
2022/08/15 06:27:38;;;;;;;42.38;20.65;;;24.20;85.50;;;;;;7642863;22;83623;-69
2022/08/15 06:30:39;;;;;;;43.33;20.55;;;24.10;85.50;;;;;;7640658;22;86037;-69
2022/08/15 06:33:40;;;;;;;38.13;18.75;;;24.10;85.80;;;;;;7641049;22;85852;-67
2022/08/15 06:36:41;;;;;;;33.10;18.40;;;24.20;85.60;;;;;;7641102;22;85092;-67
2022/08/15 06:39:42;;;;;;;37.40;20.10;;;24.30;85.20;;;;;;7641487;22;84760;-68
2022/08/15 06:42:42;;;;;;;41.42;20.63;;;24.30;84.80;;;;;;7641126;22;85635;-68
2022/08/15 06:45:46;;;;;;;37.42;20.08;;;24.30;84.70;;;;;;7641005;22;84669;-67
2022/08/15 06:48:47;;;;;;;39.17;20.58;;;24.40;84.60;;;;;;7641351;22;86016;-74
2022/08/15 06:51:47;;;;;;;45.53;20.40;;;24.40;84.70;;;;;;7642197;22;84756;-73
2022/08/15 06:54:50;;;;;;;42.65;20.27;;;24.40;84.20;;;;;;7640960;22;84479;-74
2022/08/15 06:58:04;;;;;;;31.15;18.35;;;24.50;83.90;;;;;;7643521;22;82886;-74
2022/08/15 07:01:05;;;;;;;38.17;19.48;;;24.50;83.50;;;;;;7640985;22;85637;-66
2022/08/15 07:04:06;;;;;;;52.88;20.88;;;24.50;83.60;;;;;;7642916;22;82870;-67
2022/08/15 07:07:08;;;;;;;44.20;20.92;;;24.60;83.50;;;;;;7641131;22;86219;-66
2022/08/15 07:10:08;;;;;;;53.15;19.73;;;24.60;83.40;;;;;;7615995;22;85882;-66
2022/08/15 07:13:12;;;;;;;45.22;20.55;;;24.60;83.60;;;;;;7590805;22;1189732;-67
2022/08/15 07:16:13;;;;;;;36.75;18.42;;;24.60;83.30;;;;;;7643761;22;85691;-66
2022/08/15 07:19:14;;;;;;;32.80;18.15;;;24.60;83.50;;;;;;7644176;22;85255;-72
2022/08/15 07:22:34;;;;;;;43.50;21.70;;;24.70;83.60;;;;;;7643414;22;83295;-68
2022/08/15 07:25:35;;;;;;;38.30;21.38;;;24.70;83.90;;;;;;7642549;22;85744;-69
2022/08/15 07:28:35;;;;;;;43.15;22.10;;;24.60;85.00;;;;;;7640937;22;84474;-69
2022/08/15 07:31:37;;;;;;;36.88;20.38;;;24.50;85.40;;;;;;7643694;22;85267;-68
2022/08/15 07:34:39;;;;;;;33.75;20.10;;;24.50;86.20;;;;;;7645155;22;82799;-68
2022/08/15 07:37:40;;;;;;;35.90;20.83;;;24.40;86.30;;;;;;7643511;22;84274;-68
2022/08/15 07:40:41;;;;;;;34.40;20.20;;;24.40;86.90;;;;;;7643161;22;84475;-67
2022/08/15 07:43:46;;;;;;;33.55;18.58;;;24.40;86.80;;;;;;7646743;22;83219;-68
2022/08/15 07:46:52;;;;;;;32.30;19.27;;;24.40;87.30;;;;;;7644876;22;85338;-69
2022/08/15 07:49:53;;;;;;;28.65;18.63;;;24.40;87.40;;;;;;7644721;22;85561;-68
2022/08/15 07:52:55;;;;;;;34.65;19.65;;;24.40;87.40;;;;;;7646721;22;82937;-67
2022/08/15 07:56:03;;;;;;;31.20;18.92;;;24.40;87.50;;;;;;7644551;22;85694;-68
2022/08/15 07:59:03;;;;;;;35.95;19.15;;;24.40;87.70;;;;;;7646213;22;82987;-68
2022/08/15 08:02:04;;;;;;;32.28;19.35;;;24.40;87.80;;;;;;7646629;22;83300;-68
2022/08/15 08:05:05;;;;;;;30.73;18.88;;;24.40;87.60;;;;;;7644756;22;85535;-68
2022/08/15 08:08:06;;;;;;;31.80;18.67;;;24.50;87.80;;;;;;7645012;22;86108;-67
2022/08/15 08:11:06;;;;;;;31.48;19.15;;;24.60;87.10;;;;;;7646459;22;82980;-67
2022/08/15 08:14:08;;;;;;;33.03;18.75;;;24.60;87.50;;;;;;7644919;22;86076;-67
2022/08/15 08:17:09;;;;;;;29.60;19.25;;;24.60;87.00;;;;;;7644344;22;85675;-68
2022/08/15 08:20:10;;;;;;;31.48;17.33;;;24.60;87.10;;;;;;7646486;22;82808;-69
2022/08/15 08:23:10;;;;;;;34.63;18.42;;;24.60;86.90;;;;;;7645186;22;84599;-69
2022/08/15 08:26:11;;;;;;;31.42;18.08;;;24.60;86.90;;;;;;7645081;22;86019;-68
2022/08/15 08:29:11;;;;;;;29.88;18.50;;;24.60;87.10;;;;;;7646661;22;83319;-69
2022/08/15 08:32:12;;;;;;;29.63;18.42;;;24.60;87.00;;;;;;7645177;22;85808;-69
2022/08/15 08:35:13;;;;;;;26.92;17.15;;;24.60;87.10;;;;;;7646923;22;82794;-68
2022/08/15 08:38:13;;;;;;;27.55;18.27;;;24.60;86.70;;;;;;7644354;22;83043;-70
2022/08/15 08:41:29;;;;;;;28.13;17.83;;;24.70;86.10;;;;;;7645900;22;83392;-71
2022/08/15 08:44:29;;;;;;;32.80;19.40;;;24.70;86.60;;;;;;7645513;22;88623;-69
2022/08/15 08:47:29;;;;;;;32.28;18.83;;;24.70;87.30;;;;;;7646210;22;82864;-67
2022/08/15 08:50:30;;;;;;;27.23;18.15;;;24.70;89.10;;;;;;7646565;22;83891;-66
2022/08/15 08:53:30;;;;;;;27.77;17.80;;;24.70;88.00;;;;;;7645792;22;84152;-67
2022/08/15 08:56:31;;;;;;;34.53;17.40;;;24.80;87.20;;;;;;7646311;22;83183;-66
2022/08/15 08:59:31;;;;;;;27.15;16.33;;;24.80;86.60;;;;;;7646271;22;82855;-70
2022/08/15 09:02:34;;;;;;;29.63;18.17;;;24.90;86.60;;;;;;7646380;22;83215;-69
2022/08/15 09:05:35;;;;;;;26.77;17.13;;;24.90;86.70;;;;;;7646344;22;82998;-70
2022/08/15 09:08:36;;;;;;;28.85;18.98;;;24.90;86.10;;;;;;7646101;22;83745;-70
2022/08/15 09:11:37;;;;;;;27.67;18.42;;;24.90;85.60;;;;;;7645689;22;83516;-70
2022/08/15 09:14:37;;;;;;;31.48;18.38;;;24.90;86.40;;;;;;7645844;22;82984;-70
2022/08/15 09:17:38;;;;;;;33.08;18.45;;;24.90;85.80;;;;;;7644818;22;83003;-69
2022/08/15 09:20:38;;;;;;;28.92;17.77;;;25.00;86.80;;;;;;7647016;22;83225;-69
2022/08/15 09:23:38;;;;;;;26.70;16.92;;;25.10;85.50;;;;;;7646183;22;83075;-71
2022/08/15 09:26:41;;;;;;;26.45;16.52;;;25.10;86.50;;;;;;7646776;22;82837;-69
2022/08/15 09:29:43;;;;;;;22.83;15.32;;;25.20;86.10;;;;;;7644227;22;83095;-69
2022/08/15 09:32:44;;;;;;;25.20;15.88;;;25.20;85.50;;;;;;7643828;22;83487;-68
2022/08/15 09:35:44;;;;;;;27.63;17.55;;;25.30;85.70;;;;;;7646246;22;83353;-69
2022/08/15 09:38:47;;;;;;;28.65;17.20;;;25.40;85.60;;;;;;7645699;22;82898;-69
2022/08/15 09:41:48;;;;;;;27.65;18.13;;;25.50;85.60;;;;;;7646268;22;83148;-71
2022/08/15 09:44:48;;;;;;;26.13;16.75;;;25.50;85.40;;;;;;7645950;22;83455;-71
2022/08/15 09:47:49;;;;;;;28.98;17.90;;;25.50;85.80;;;;;;7645946;22;83183;-70
2022/08/15 09:50:49;;;;;;;29.48;17.45;;;25.50;85.90;;;;;;7646048;22;83385;-70
2022/08/15 09:53:51;;;;;;;28.25;17.38;;;25.60;85.80;;;;;;7645777;22;82859;-71
2022/08/15 09:56:52;;;;;;;25.77;17.35;;;25.70;85.90;;;;;;7646435;22;82783;-71
2022/08/15 09:59:52;;;;;;;32.42;17.17;;;25.70;84.50;;;;;;7646084;22;84149;-70
2022/08/15 10:02:53;;;;;;;22.52;15.52;;;25.70;85.10;;;;;;7643928;22;83213;-71
2022/08/15 10:05:53;;;;;;;26.73;16.08;;;25.80;84.90;;;;;;7645984;22;82920;-70
2022/08/15 10:08:53;;;;;;;28.77;17.52;;;25.80;85.00;;;;;;7645882;22;83115;-71
2022/08/15 10:11:54;;;;;;;30.08;17.63;;;25.90;85.00;;;;;;7645708;22;82938;-71
2022/08/15 10:14:55;;;;;;;30.90;17.48;;;25.90;84.10;;;;;;7646197;22;83180;-70
2022/08/15 10:17:55;;;;;;;27.33;17.20;;;25.90;84.20;;;;;;7646271;22;83062;-68
2022/08/15 10:20:56;;;;;;;22.48;16.02;;;25.90;84.90;;;;;;7645653;22;83108;-70
2022/08/15 10:23:57;;;;;;;30.17;17.75;;;25.90;84.90;;;;;;7646214;22;82835;-70
2022/08/15 10:26:57;;;;;;;25.35;15.45;;;26.00;84.70;;;;;;7645674;22;82925;-72
2022/08/15 10:29:58;;;;;;;30.67;17.30;;;26.10;84.40;;;;;;7645950;22;83072;-69
2022/08/15 10:32:59;;;;;;;31.92;17.77;;;26.10;84.10;;;;;;7645508;22;83090;-70
2022/08/15 10:36:00;;;;;;;31.45;18.27;;;26.10;84.30;;;;;;7644597;22;82882;-72
2022/08/15 10:39:00;;;;;;;25.58;17.05;;;26.10;83.30;;;;;;7645484;22;82804;-70
2022/08/15 10:42:01;;;;;;;29.08;17.42;;;26.10;83.30;;;;;;7645933;22;83113;-73
2022/08/15 10:45:01;;;;;;;31.13;17.10;;;26.20;83.80;;;;;;7646168;22;82884;-67
2022/08/15 10:48:02;;;;;;;27.42;17.10;;;26.20;84.40;;;;;;7645424;22;83201;-68
2022/08/15 10:51:02;;;;;;;26.27;17.75;;;26.20;84.30;;;;;;7645481;22;83753;-68
2022/08/15 10:54:03;;;;;;;28.45;17.55;;;26.30;84.00;;;;;;7645520;22;82724;-70
2022/08/15 10:57:04;;;;;;;25.15;17.13;;;26.30;84.60;;;;;;7646171;22;83253;-69
2022/08/15 11:00:05;;;;;;;27.77;17.35;;;26.40;84.70;;;;;;7645363;22;82867;-70
2022/08/15 11:03:05;;;;;;;26.27;17.50;;;26.40;84.80;;;;;;7644282;22;83024;-71
2022/08/15 11:06:06;;;;;;;29.25;16.80;;;26.40;84.10;;;;;;7645184;22;84041;-71
2022/08/15 11:09:06;;;;;;;26.38;18.58;;;26.40;83.70;;;;;;7645232;22;83031;-71
2022/08/15 11:12:07;;;;;;;25.48;17.67;;;26.50;84.70;;;;;;7644687;22;84517;-69
2022/08/15 11:15:09;;;;;;;29.17;18.98;;;26.50;84.30;;;;;;7646152;22;82632;-70
2022/08/15 11:18:10;;;;;;;28.95;17.63;;;26.60;84.20;;;;;;7646842;22;83299;-69
2022/08/15 11:21:11;;;;;;;28.60;17.98;;;26.60;84.10;;;;;;7646201;22;83921;-69
2022/08/15 11:24:11;;;;;;;24.83;16.63;;;26.50;83.90;;;;;;7644873;22;82926;-68
2022/08/15 11:27:12;;;;;;;30.42;17.75;;;26.60;84.40;;;;;;7646643;22;82740;-68
2022/08/15 11:30:13;;;;;;;32.70;19.70;;;26.70;84.20;;;;;;7646806;22;82888;-68
2022/08/15 11:33:13;;;;;;;35.10;19.27;;;26.70;83.90;;;;;;7646544;22;83939;-70
2022/08/15 11:36:14;;;;;;;40.30;20.70;;;26.70;83.70;;;;;;7646957;22;83007;-70
2022/08/15 11:39:14;;;;;;;30.48;18.02;;;26.80;83.70;;;;;;7646721;22;83177;-70
2022/08/15 11:42:17;;;;;;;28.42;16.42;;;26.80;84.80;;;;;;7646317;22;83476;-69
2022/08/15 11:45:17;;;;;;;35.10;19.77;;;26.90;84.60;;;;;;7647214;22;83282;-71
2022/08/15 11:48:18;;;;;;;35.42;19.70;;;26.90;84.10;;;;;;7646012;22;83575;-69
2022/08/15 11:51:18;;;;;;;36.47;18.33;;;26.80;83.30;;;;;;7647141;22;83215;-68
2022/08/15 11:54:19;;;;;;;29.27;17.77;;;26.90;83.70;;;;;;7646986;22;83708;-68
2022/08/15 11:57:19;;;;;;;24.20;15.85;;;26.80;82.20;;;;;;7646971;22;82803;-69
2022/08/15 12:00:20;;;;;;;31.88;16.73;;;26.90;82.90;;;;;;7646295;22;84328;-70
2022/08/15 12:03:20;;;;;;;28.08;16.65;;;27.00;82.30;;;;;;7645779;22;82802;-69
2022/08/15 12:06:21;;;;;;;24.55;15.77;;;26.90;82.30;;;;;;7646647;22;83179;-69
2022/08/15 12:09:21;;;;;;;27.17;16.33;;;26.90;82.60;;;;;;7646795;22;83299;-68
2022/08/15 12:12:22;;;;;;;21.52;14.02;;;26.90;81.80;;;;;;7645632;22;83606;-67
2022/08/15 12:15:22;;;;;;;26.75;15.50;;;27.00;80.90;;;;;;7646248;22;82922;-70
2022/08/15 12:18:24;;;;;;;23.92;15.23;;;26.90;80.70;;;;;;7645361;22;82760;-68
2022/08/15 12:21:24;;;;;;;22.75;14.27;;;27.00;80.80;;;;;;7644582;22;83243;-67
2022/08/15 12:24:25;;;;;;;22.25;14.43;;;26.90;79.20;;;;;;7646375;22;83321;-67
2022/08/15 12:27:25;;;;;;;24.67;14.70;;;26.80;80.00;;;;;;7645499;22;83089;-66
2022/08/15 12:30:26;;;;;;;22.23;14.50;;;26.80;78.60;;;;;;7646616;22;83458;-67
2022/08/15 12:33:26;;;;;;;27.25;15.50;;;26.70;78.80;;;;;;7645380;22;84292;-67
2022/08/15 12:36:27;;;;;;;25.52;15.07;;;26.70;78.50;;;;;;7646436;22;84737;-67
2022/08/15 12:39:27;;;;;;;30.10;13.95;;;26.70;78.20;;;;;;7646217;22;82873;-67
2022/08/15 12:42:28;;;;;;;22.92;14.02;;;26.60;78.80;;;;;;7646048;22;83203;-66
2022/08/15 12:45:28;;;;;;;20.73;13.13;;;26.60;78.00;;;;;;7646084;22;83080;-66
2022/08/15 12:48:29;;;;;;;17.92;12.90;;;26.60;77.80;;;;;;7646318;22;83798;-67
2022/08/15 12:51:29;;;;;;;17.30;11.55;;;26.60;77.20;;;;;;7646723;22;84303;-66
2022/08/15 12:54:30;;;;;;;19.30;12.77;;;26.60;76.80;;;;;;7644135;22;85721;-65
2022/08/15 12:57:30;;;;;;;20.67;12.85;;;26.60;77.10;;;;;;7645623;22;84010;-66
2022/08/15 13:00:31;;;;;;;18.63;11.77;;;26.60;76.30;;;;;;7646030;22;83083;-66
2022/08/15 13:03:33;;;;;;;18.55;12.65;;;26.60;76.50;;;;;;7646340;22;83071;-66
2022/08/15 13:06:33;;;;;;;20.15;12.00;;;26.60;76.60;;;;;;7645946;22;82842;-66
2022/08/15 13:09:34;;;;;;;17.63;11.80;;;26.60;76.50;;;;;;7646120;22;84092;-65
2022/08/15 13:12:34;;;;;;;19.48;12.30;;;26.50;76.20;;;;;;7645834;22;83264;-65
2022/08/15 13:15:35;;;;;;;18.23;12.48;;;26.50;75.30;;;;;;7645307;22;83171;-67
2022/08/15 13:18:36;;;;;;;23.48;13.82;;;26.50;76.10;;;;;;7645755;22;82855;-66
2022/08/15 13:24:57;;;;;;;15.63;10.43;;;26.50;75.10;;;;;;7646161;22;82979;-66
2022/08/15 13:27:57;;;;;;;19.23;11.95;;;26.50;74.70;;;;;;7643826;22;84032;-67
2022/08/15 13:30:58;;;;;;;17.08;11.55;;;26.40;74.40;;;;;;7645073;22;83026;-67
2022/08/15 13:33:59;;;;;;;20.88;11.48;;;26.40;74.60;;;;;;7643880;22;83320;-66
2022/08/15 13:36:59;;;;;;;17.67;11.32;;;26.40;75.10;;;;;;7645360;22;83179;-66
2022/08/15 13:40:00;;;;;;;17.58;11.45;;;26.40;75.40;;;;;;7644499;22;82672;-66
2022/08/15 13:43:01;;;;;;;18.75;12.45;;;26.30;75.50;;;;;;7645649;22;82964;-69
2022/08/15 13:46:02;;;;;;;17.65;11.30;;;26.30;75.40;;;;;;7646944;22;82864;-69
2022/08/15 13:49:03;;;;;;;23.88;12.40;;;26.30;75.30;;;;;;7646232;22;83151;-68
2022/08/15 13:52:03;;;;;;;16.27;10.85;;;26.30;74.80;;;;;;7646066;22;83213;-74
2022/08/15 13:55:04;;;;;;;18.17;11.10;;;26.30;73.00;;;;;;7645255;22;83345;-71
2022/08/15 13:58:04;;;;;;;15.55;10.27;;;26.30;72.70;;;;;;7643678;22;83299;-77
2022/08/15 14:01:05;;;;;;;21.90;11.30;;;26.30;72.70;;;;;;7645965;22;82810;-72
2022/08/15 14:04:05;;;;;;;16.23;10.27;;;26.30;72.10;;;;;;7645929;22;82935;-75
2022/08/15 14:07:06;;;;;;;15.05;10.60;;;26.20;72.20;;;;;;7646631;22;83059;-74
2022/08/15 14:10:06;;;;;;;16.08;10.32;;;26.20;72.50;;;;;;7645337;22;82938;-73
2022/08/15 14:13:08;;;;;;;19.67;10.73;;;26.20;72.40;;;;;;7645812;22;83332;-76
2022/08/15 14:16:08;;;;;;;17.10;10.25;;;26.20;72.10;;;;;;7646312;22;83822;-75
2022/08/15 14:19:10;;;;;;;15.13;10.07;;;26.20;71.90;;;;;;7646528;22;83235;-77
2022/08/15 14:22:10;;;;;;;21.02;9.85;;;26.20;72.20;;;;;;7646251;22;83037;-75
2022/08/15 14:25:12;;;;;;;15.65;10.50;;;26.20;72.30;;;;;;7648695;22;87112;-70
2022/08/15 14:28:12;;;;;;;12.05;9.38;;;26.20;71.50;;;;;;7645851;22;83174;-70
2022/08/15 14:31:14;;;;;;;18.35;10.15;;;26.20;70.80;;;;;;7647640;22;83487;-72
2022/08/15 14:34:14;;;;;;;16.63;9.95;;;26.10;70.60;;;;;;7643747;22;82773;-71
2022/08/15 14:37:15;;;;;;;19.20;10.80;;;26.10;70.20;;;;;;7648831;22;82951;-67
2022/08/15 14:40:15;;;;;;;18.50;9.48;;;26.10;70.00;;;;;;7643144;22;83052;-67
2022/08/15 14:43:16;;;;;;;13.98;9.25;;;26.10;70.30;;;;;;7646567;22;81720;-66
2022/08/15 14:46:16;;;;;;;15.82;9.20;;;26.10;69.80;;;;;;7649237;22;80311;-70
2022/08/15 14:49:18;;;;;;;12.93;9.25;;;26.10;69.80;;;;;;7649567;22;80545;-67
2022/08/15 14:52:18;;;;;;;12.98;9.43;;;26.10;70.70;;;;;;7649343;22;81156;-67
2022/08/15 14:55:19;;;;;;;13.30;8.77;;;26.10;71.10;;;;;;7649400;22;80314;-67
2022/08/15 14:58:20;;;;;;;16.85;9.50;;;26.20;71.40;;;;;;7648664;22;80562;-68
2022/08/15 15:01:22;;;;;;;14.77;8.93;;;26.20;71.10;;;;;;7649200;22;81413;-68
2022/08/15 15:04:22;;;;;;;14.95;9.57;;;26.20;71.30;;;;;;7648887;22;81442;-68
2022/08/15 15:07:23;;;;;;;14.00;9.15;;;26.20;71.30;;;;;;7649166;22;80141;-67
2022/08/15 15:10:24;;;;;;;12.88;8.68;;;26.20;71.50;;;;;;7649105;22;81075;-67
2022/08/15 15:13:25;;;;;;;12.93;9.38;;;26.20;71.40;;;;;;7648527;22;80065;-68
2022/08/15 15:16:26;;;;;;;12.52;8.85;;;26.30;71.60;;;;;;7648568;22;80544;-67
2022/08/15 15:19:26;;;;;;;14.18;9.93;;;26.30;71.60;;;;;;7649079;22;80140;-67
2022/08/15 15:22:27;;;;;;;15.80;9.48;;;26.20;71.50;;;;;;7648990;22;80975;-68
2022/08/15 15:25:27;;;;;;;14.02;8.88;;;26.20;71.70;;;;;;7648538;22;80169;-67
2022/08/15 15:28:28;;;;;;;13.02;8.43;;;26.20;71.90;;;;;;7648125;22;80906;-68
2022/08/15 15:31:28;;;;;;;13.18;9.10;;;26.20;71.70;;;;;;7648571;22;80520;-68